sensor_id;sensor_type;location;lat;lon;timestamp;temperature;humidity
17726;DHT22;8983;53.156;17.960;2022-09-09T00:02:02;16.00;99.90
17726;DHT22;8983;53.156;17.960;2022-09-09T00:04:33;16.00;99.90
17726;DHT22;8983;53.156;17.960;2022-09-09T00:07:05;15.90;99.90
17726;DHT22;8983;53.156;17.960;2022-09-09T00:09:40;15.90;99.90
17726;DHT22;8983;53.156;17.960;2022-09-09T00:12:18;15.90;99.90
17726;DHT22;8983;53.156;17.960;2022-09-09T00:14:52;16.00;99.90
17726;DHT22;8983;53.156;17.960;2022-09-09T00:17:32;16.00;99.90
17726;DHT22;8983;53.156;17.960;2022-09-09T00:20:11;16.00;99.90
17726;DHT22;8983;53.156;17.960;2022-09-09T00:22:44;15.80;99.90
17726;DHT22;8983;53.156;17.960;2022-09-09T00:25:21;15.70;99.90
17726;DHT22;8983;53.156;17.960;2022-09-09T00:27:51;15.70;99.90
17726;DHT22;8983;53.156;17.960;2022-09-09T00:30:21;15.70;99.90
17726;DHT22;8983;53.156;17.960;2022-09-09T00:32:54;15.70;99.90
17726;DHT22;8983;53.156;17.960;2022-09-09T00:35:27;15.80;99.90
17726;DHT22;8983;53.156;17.960;2022-09-09T00:38:00;15.80;99.90
17726;DHT22;8983;53.156;17.960;2022-09-09T00:40:32;15.90;99.90
17726;DHT22;8983;53.156;17.960;2022-09-09T00:43:27;15.90;99.90
17726;DHT22;8983;53.156;17.960;2022-09-09T00:46:26;15.80;99.90
17726;DHT22;8983;53.156;17.960;2022-09-09T00:49:04;15.70;99.90
17726;DHT22;8983;53.156;17.960;2022-09-09T00:51:44;15.60;99.90
17726;DHT22;8983;53.156;17.960;2022-09-09T00:54:30;15.50;99.90
17726;DHT22;8983;53.156;17.960;2022-09-09T00:57:12;15.40;99.90
17726;DHT22;8983;53.156;17.960;2022-09-09T00:59:47;15.40;99.90
17726;DHT22;8983;53.156;17.960;2022-09-09T01:02:26;15.40;99.90
17726;DHT22;8983;53.156;17.960;2022-09-09T01:05:02;15.40;99.90
17726;DHT22;8983;53.156;17.960;2022-09-09T01:07:33;15.40;99.90
17726;DHT22;8983;53.156;17.960;2022-09-09T01:10:04;15.50;99.90
17726;DHT22;8983;53.156;17.960;2022-09-09T01:12:40;15.60;99.90
17726;DHT22;8983;53.156;17.960;2022-09-09T01:15:12;15.50;99.90
17726;DHT22;8983;53.156;17.960;2022-09-09T01:17:50;15.50;99.90
17726;DHT22;8983;53.156;17.960;2022-09-09T01:20:23;15.50;99.90
17726;DHT22;8983;53.156;17.960;2022-09-09T01:23:22;15.50;99.90
17726;DHT22;8983;53.156;17.960;2022-09-09T01:26:14;15.50;99.90
17726;DHT22;8983;53.156;17.960;2022-09-09T01:28:45;15.40;99.90
17726;DHT22;8983;53.156;17.960;2022-09-09T01:31:20;15.40;99.90
17726;DHT22;8983;53.156;17.960;2022-09-09T01:33:49;15.40;99.90
17726;DHT22;8983;53.156;17.960;2022-09-09T01:36:24;15.50;99.90
17726;DHT22;8983;53.156;17.960;2022-09-09T01:38:53;15.50;99.90
17726;DHT22;8983;53.156;17.960;2022-09-09T01:41:23;15.40;99.90
17726;DHT22;8983;53.156;17.960;2022-09-09T01:43:52;15.20;99.90
17726;DHT22;8983;53.156;17.960;2022-09-09T01:46:21;15.10;99.90
17726;DHT22;8983;53.156;17.960;2022-09-09T01:48:51;15.10;99.90
17726;DHT22;8983;53.156;17.960;2022-09-09T01:51:20;15.10;99.90
17726;DHT22;8983;53.156;17.960;2022-09-09T01:53:48;15.10;99.90
17726;DHT22;8983;53.156;17.960;2022-09-09T01:56:26;15.20;99.90
17726;DHT22;8983;53.156;17.960;2022-09-09T01:59:04;15.20;99.90
17726;DHT22;8983;53.156;17.960;2022-09-09T02:01:44;15.20;99.90
17726;DHT22;8983;53.156;17.960;2022-09-09T02:04:27;15.40;99.90
17726;DHT22;8983;53.156;17.960;2022-09-09T02:07:00;15.30;99.90
17726;DHT22;8983;53.156;17.960;2022-09-09T02:09:30;15.20;99.90
17726;DHT22;8983;53.156;17.960;2022-09-09T02:12:04;15.20;99.90
17726;DHT22;8983;53.156;17.960;2022-09-09T02:14:37;15.30;99.90
17726;DHT22;8983;53.156;17.960;2022-09-09T02:17:09;15.20;99.90
17726;DHT22;8983;53.156;17.960;2022-09-09T02:19:41;15.20;99.90
17726;DHT22;8983;53.156;17.960;2022-09-09T02:22:12;15.20;99.90
17726;DHT22;8983;53.156;17.960;2022-09-09T02:24:41;15.20;99.90
17726;DHT22;8983;53.156;17.960;2022-09-09T02:27:11;15.20;99.90
17726;DHT22;8983;53.156;17.960;2022-09-09T02:29:41;15.30;99.90
17726;DHT22;8983;53.156;17.960;2022-09-09T02:32:13;15.10;99.90
17726;DHT22;8983;53.156;17.960;2022-09-09T02:34:45;15.10;99.90
17726;DHT22;8983;53.156;17.960;2022-09-09T02:37:16;15.20;99.90
17726;DHT22;8983;53.156;17.960;2022-09-09T02:39:46;15.20;99.90
17726;DHT22;8983;53.156;17.960;2022-09-09T02:42:16;15.20;99.90
17726;DHT22;8983;53.156;17.960;2022-09-09T02:44:45;15.30;99.90
17726;DHT22;8983;53.156;17.960;2022-09-09T02:47:34;15.30;99.90
17726;DHT22;8983;53.156;17.960;2022-09-09T02:50:11;15.40;99.90
17726;DHT22;8983;53.156;17.960;2022-09-09T02:52:51;15.40;99.90
17726;DHT22;8983;53.156;17.960;2022-09-09T02:55:34;15.40;99.90
17726;DHT22;8983;53.156;17.960;2022-09-09T02:58:09;15.30;99.90
17726;DHT22;8983;53.156;17.960;2022-09-09T03:00:39;15.30;99.90
17726;DHT22;8983;53.156;17.960;2022-09-09T03:03:08;15.30;99.90
17726;DHT22;8983;53.156;17.960;2022-09-09T03:05:37;15.30;99.90
17726;DHT22;8983;53.156;17.960;2022-09-09T03:08:05;15.30;99.90
17726;DHT22;8983;53.156;17.960;2022-09-09T03:10:33;15.30;99.90
17726;DHT22;8983;53.156;17.960;2022-09-09T03:13:02;15.40;99.90
17726;DHT22;8983;53.156;17.960;2022-09-09T03:15:33;15.30;99.90
17726;DHT22;8983;53.156;17.960;2022-09-09T03:18:01;15.30;99.90
17726;DHT22;8983;53.156;17.960;2022-09-09T03:20:30;15.30;99.90
17726;DHT22;8983;53.156;17.960;2022-09-09T03:22:59;15.30;99.90
17726;DHT22;8983;53.156;17.960;2022-09-09T03:25:28;15.20;99.90
17726;DHT22;8983;53.156;17.960;2022-09-09T03:27:56;15.30;99.90
17726;DHT22;8983;53.156;17.960;2022-09-09T03:30:26;15.30;99.90
17726;DHT22;8983;53.156;17.960;2022-09-09T03:32:56;15.40;99.90
17726;DHT22;8983;53.156;17.960;2022-09-09T03:35:24;15.40;99.90
17726;DHT22;8983;53.156;17.960;2022-09-09T03:37:52;15.40;99.90
17726;DHT22;8983;53.156;17.960;2022-09-09T03:40:22;15.30;99.90
17726;DHT22;8983;53.156;17.960;2022-09-09T03:42:50;15.20;99.90
17726;DHT22;8983;53.156;17.960;2022-09-09T03:45:18;15.20;99.90
17726;DHT22;8983;53.156;17.960;2022-09-09T03:47:46;15.30;99.90
17726;DHT22;8983;53.156;17.960;2022-09-09T03:50:16;15.10;99.90
17726;DHT22;8983;53.156;17.960;2022-09-09T03:52:45;15.10;99.90
17726;DHT22;8983;53.156;17.960;2022-09-09T03:55:14;15.10;99.90
17726;DHT22;8983;53.156;17.960;2022-09-09T03:57:42;15.10;99.90
17726;DHT22;8983;53.156;17.960;2022-09-09T04:00:10;15.10;99.90
17726;DHT22;8983;53.156;17.960;2022-09-09T04:02:39;15.20;99.90
17726;DHT22;8983;53.156;17.960;2022-09-09T04:05:07;15.20;99.90
17726;DHT22;8983;53.156;17.960;2022-09-09T04:07:37;15.20;99.90
17726;DHT22;8983;53.156;17.960;2022-09-09T04:10:06;15.20;99.90
17726;DHT22;8983;53.156;17.960;2022-09-09T04:12:35;15.20;99.90
17726;DHT22;8983;53.156;17.960;2022-09-09T04:15:03;15.30;99.90
17726;DHT22;8983;53.156;17.960;2022-09-09T04:17:31;15.30;99.90
17726;DHT22;8983;53.156;17.960;2022-09-09T04:19:59;15.30;99.90
17726;DHT22;8983;53.156;17.960;2022-09-09T04:22:29;15.40;99.90
17726;DHT22;8983;53.156;17.960;2022-09-09T04:24:58;15.50;99.90
17726;DHT22;8983;53.156;17.960;2022-09-09T04:27:27;15.40;99.90
17726;DHT22;8983;53.156;17.960;2022-09-09T04:29:55;15.40;99.90
17726;DHT22;8983;53.156;17.960;2022-09-09T04:32:24;15.50;99.90
17726;DHT22;8983;53.156;17.960;2022-09-09T04:34:53;15.40;99.90
17726;DHT22;8983;53.156;17.960;2022-09-09T04:37:22;15.30;99.90
17726;DHT22;8983;53.156;17.960;2022-09-09T04:39:51;15.30;99.90
17726;DHT22;8983;53.156;17.960;2022-09-09T04:42:21;15.30;99.90
17726;DHT22;8983;53.156;17.960;2022-09-09T04:44:49;15.30;99.90
17726;DHT22;8983;53.156;17.960;2022-09-09T04:47:17;15.20;99.90
17726;DHT22;8983;53.156;17.960;2022-09-09T04:49:45;15.10;99.90
17726;DHT22;8983;53.156;17.960;2022-09-09T04:52:14;15.10;99.90
17726;DHT22;8983;53.156;17.960;2022-09-09T04:54:43;15.10;99.90
17726;DHT22;8983;53.156;17.960;2022-09-09T04:57:12;15.10;99.90
17726;DHT22;8983;53.156;17.960;2022-09-09T04:59:45;15.10;99.90
17726;DHT22;8983;53.156;17.960;2022-09-09T05:02:14;15.30;99.90
17726;DHT22;8983;53.156;17.960;2022-09-09T05:04:43;15.30;99.90
17726;DHT22;8983;53.156;17.960;2022-09-09T05:07:11;15.30;99.90
17726;DHT22;8983;53.156;17.960;2022-09-09T05:09:40;15.40;99.90
17726;DHT22;8983;53.156;17.960;2022-09-09T05:12:09;15.20;99.90
17726;DHT22;8983;53.156;17.960;2022-09-09T05:14:37;15.20;99.90
17726;DHT22;8983;53.156;17.960;2022-09-09T05:17:07;15.00;99.90
17726;DHT22;8983;53.156;17.960;2022-09-09T05:19:35;15.00;99.90
17726;DHT22;8983;53.156;17.960;2022-09-09T05:22:03;15.00;99.90
17726;DHT22;8983;53.156;17.960;2022-09-09T05:24:31;15.10;99.90
17726;DHT22;8983;53.156;17.960;2022-09-09T05:27:00;15.20;99.90
17726;DHT22;8983;53.156;17.960;2022-09-09T05:29:29;15.30;99.90
17726;DHT22;8983;53.156;17.960;2022-09-09T05:32:00;15.20;99.90
17726;DHT22;8983;53.156;17.960;2022-09-09T05:34:30;15.20;99.90
17726;DHT22;8983;53.156;17.960;2022-09-09T05:36:58;15.20;99.90
17726;DHT22;8983;53.156;17.960;2022-09-09T05:39:26;15.30;99.90
17726;DHT22;8983;53.156;17.960;2022-09-09T05:41:54;15.20;99.90
17726;DHT22;8983;53.156;17.960;2022-09-09T05:44:22;15.20;99.90
17726;DHT22;8983;53.156;17.960;2022-09-09T05:46:54;15.20;99.90
17726;DHT22;8983;53.156;17.960;2022-09-09T05:49:22;15.30;99.90
17726;DHT22;8983;53.156;17.960;2022-09-09T05:51:52;15.30;99.90
17726;DHT22;8983;53.156;17.960;2022-09-09T05:54:20;15.40;99.90
17726;DHT22;8983;53.156;17.960;2022-09-09T05:56:48;15.40;99.90
17726;DHT22;8983;53.156;17.960;2022-09-09T05:59:18;15.40;99.90
17726;DHT22;8983;53.156;17.960;2022-09-09T06:01:46;15.40;99.90
17726;DHT22;8983;53.156;17.960;2022-09-09T06:04:14;15.50;99.90
17726;DHT22;8983;53.156;17.960;2022-09-09T06:06:42;15.50;99.90
17726;DHT22;8983;53.156;17.960;2022-09-09T06:09:12;15.50;99.90
17726;DHT22;8983;53.156;17.960;2022-09-09T06:11:40;15.50;99.90
17726;DHT22;8983;53.156;17.960;2022-09-09T06:14:08;15.60;99.90
17726;DHT22;8983;53.156;17.960;2022-09-09T06:16:37;15.60;99.90
17726;DHT22;8983;53.156;17.960;2022-09-09T06:19:05;15.60;99.90
17726;DHT22;8983;53.156;17.960;2022-09-09T06:21:35;15.40;99.90
17726;DHT22;8983;53.156;17.960;2022-09-09T06:24:04;15.30;99.90
17726;DHT22;8983;53.156;17.960;2022-09-09T06:26:36;15.30;99.90
17726;DHT22;8983;53.156;17.960;2022-09-09T06:29:05;15.40;99.90
17726;DHT22;8983;53.156;17.960;2022-09-09T06:31:35;15.40;99.90
17726;DHT22;8983;53.156;17.960;2022-09-09T06:34:05;15.50;99.90
17726;DHT22;8983;53.156;17.960;2022-09-09T06:36:35;15.50;99.90
17726;DHT22;8983;53.156;17.960;2022-09-09T06:39:03;15.50;99.90
17726;DHT22;8983;53.156;17.960;2022-09-09T06:41:37;15.40;99.90
17726;DHT22;8983;53.156;17.960;2022-09-09T06:44:06;15.40;99.90
17726;DHT22;8983;53.156;17.960;2022-09-09T06:46:34;15.30;99.90
17726;DHT22;8983;53.156;17.960;2022-09-09T06:49:02;15.30;99.90
17726;DHT22;8983;53.156;17.960;2022-09-09T06:51:33;15.30;99.90
17726;DHT22;8983;53.156;17.960;2022-09-09T06:54:02;15.20;99.90
17726;DHT22;8983;53.156;17.960;2022-09-09T06:56:32;15.30;99.90
17726;DHT22;8983;53.156;17.960;2022-09-09T06:59:04;15.40;99.90
17726;DHT22;8983;53.156;17.960;2022-09-09T07:01:34;15.50;99.90
17726;DHT22;8983;53.156;17.960;2022-09-09T07:04:03;15.50;99.90
17726;DHT22;8983;53.156;17.960;2022-09-09T07:06:36;15.60;99.90
17726;DHT22;8983;53.156;17.960;2022-09-09T07:09:07;15.60;99.90
17726;DHT22;8983;53.156;17.960;2022-09-09T07:11:38;15.60;99.90
17726;DHT22;8983;53.156;17.960;2022-09-09T07:14:08;15.70;99.90
17726;DHT22;8983;53.156;17.960;2022-09-09T07:16:39;15.70;99.90
17726;DHT22;8983;53.156;17.960;2022-09-09T07:19:07;15.70;99.90
17726;DHT22;8983;53.156;17.960;2022-09-09T07:21:35;15.80;99.90
17726;DHT22;8983;53.156;17.960;2022-09-09T07:24:03;15.80;99.90
17726;DHT22;8983;53.156;17.960;2022-09-09T07:26:34;15.90;99.90
17726;DHT22;8983;53.156;17.960;2022-09-09T07:29:02;15.90;99.90
17726;DHT22;8983;53.156;17.960;2022-09-09T07:31:33;16.00;99.90
17726;DHT22;8983;53.156;17.960;2022-09-09T07:34:03;16.10;99.90
17726;DHT22;8983;53.156;17.960;2022-09-09T07:36:32;16.10;99.90
17726;DHT22;8983;53.156;17.960;2022-09-09T07:39:01;16.20;99.90
17726;DHT22;8983;53.156;17.960;2022-09-09T07:41:32;16.30;99.90
17726;DHT22;8983;53.156;17.960;2022-09-09T07:44:04;16.30;99.90
17726;DHT22;8983;53.156;17.960;2022-09-09T07:46:35;16.30;99.90
17726;DHT22;8983;53.156;17.960;2022-09-09T07:49:03;16.40;99.90
17726;DHT22;8983;53.156;17.960;2022-09-09T07:51:33;16.40;99.90
17726;DHT22;8983;53.156;17.960;2022-09-09T07:54:03;16.40;99.90
17726;DHT22;8983;53.156;17.960;2022-09-09T07:56:32;16.40;99.90
17726;DHT22;8983;53.156;17.960;2022-09-09T07:59:01;16.30;99.90
17726;DHT22;8983;53.156;17.960;2022-09-09T08:01:34;16.30;99.90
17726;DHT22;8983;53.156;17.960;2022-09-09T08:04:07;16.40;99.90
17726;DHT22;8983;53.156;17.960;2022-09-09T08:06:37;16.30;99.90
17726;DHT22;8983;53.156;17.960;2022-09-09T08:09:08;16.40;99.90
17726;DHT22;8983;53.156;17.960;2022-09-09T08:11:36;16.40;99.90
17726;DHT22;8983;53.156;17.960;2022-09-09T08:14:05;16.40;99.90
17726;DHT22;8983;53.156;17.960;2022-09-09T08:16:38;16.50;99.90
17726;DHT22;8983;53.156;17.960;2022-09-09T08:19:07;16.60;99.90
17726;DHT22;8983;53.156;17.960;2022-09-09T08:21:37;16.60;99.90
17726;DHT22;8983;53.156;17.960;2022-09-09T08:24:07;16.70;99.90
17726;DHT22;8983;53.156;17.960;2022-09-09T08:26:38;16.80;99.90
17726;DHT22;8983;53.156;17.960;2022-09-09T08:29:09;16.90;99.90
17726;DHT22;8983;53.156;17.960;2022-09-09T08:31:40;17.00;99.90
17726;DHT22;8983;53.156;17.960;2022-09-09T08:34:09;17.10;99.90
17726;DHT22;8983;53.156;17.960;2022-09-09T08:36:39;17.10;99.90
17726;DHT22;8983;53.156;17.960;2022-09-09T08:39:10;17.20;99.90
17726;DHT22;8983;53.156;17.960;2022-09-09T08:41:56;17.20;99.90
17726;DHT22;8983;53.156;17.960;2022-09-09T08:44:37;17.30;99.90
17726;DHT22;8983;53.156;17.960;2022-09-09T08:47:21;17.00;99.90
17726;DHT22;8983;53.156;17.960;2022-09-09T08:50:13;16.90;99.90
17726;DHT22;8983;53.156;17.960;2022-09-09T08:52:51;16.90;99.90
17726;DHT22;8983;53.156;17.960;2022-09-09T08:55:28;16.90;99.90
17726;DHT22;8983;53.156;17.960;2022-09-09T08:58:08;17.00;99.90
17726;DHT22;8983;53.156;17.960;2022-09-09T09:00:44;17.10;99.90
17726;DHT22;8983;53.156;17.960;2022-09-09T09:03:22;17.20;99.90
17726;DHT22;8983;53.156;17.960;2022-09-09T09:05:59;17.30;99.90
17726;DHT22;8983;53.156;17.960;2022-09-09T09:08:35;17.40;99.90
17726;DHT22;8983;53.156;17.960;2022-09-09T09:11:05;17.50;99.90
17726;DHT22;8983;53.156;17.960;2022-09-09T09:13:39;17.50;99.90
17726;DHT22;8983;53.156;17.960;2022-09-09T09:16:17;17.60;99.90
17726;DHT22;8983;53.156;17.960;2022-09-09T09:18:48;17.70;99.90
17726;DHT22;8983;53.156;17.960;2022-09-09T09:21:21;17.80;99.90
17726;DHT22;8983;53.156;17.960;2022-09-09T09:23:56;17.90;99.90
17726;DHT22;8983;53.156;17.960;2022-09-09T09:26:29;18.00;99.90
17726;DHT22;8983;53.156;17.960;2022-09-09T09:28:59;17.90;99.90
17726;DHT22;8983;53.156;17.960;2022-09-09T09:31:29;17.90;99.90
17726;DHT22;8983;53.156;17.960;2022-09-09T09:33:59;18.00;99.90
17726;DHT22;8983;53.156;17.960;2022-09-09T09:36:37;17.90;99.90
17726;DHT22;8983;53.156;17.960;2022-09-09T09:39:06;17.90;99.90
17726;DHT22;8983;53.156;17.960;2022-09-09T09:41:57;17.90;99.90
17726;DHT22;8983;53.156;17.960;2022-09-09T09:44:32;18.00;99.90
17726;DHT22;8983;53.156;17.960;2022-09-09T09:47:08;18.10;99.90
17726;DHT22;8983;53.156;17.960;2022-09-09T09:49:51;18.30;99.90
17726;DHT22;8983;53.156;17.960;2022-09-09T09:52:23;18.40;99.90
17726;DHT22;8983;53.156;17.960;2022-09-09T09:54:52;18.40;99.90
17726;DHT22;8983;53.156;17.960;2022-09-09T09:57:25;18.40;99.90
17726;DHT22;8983;53.156;17.960;2022-09-09T10:00:04;18.50;99.90
17726;DHT22;8983;53.156;17.960;2022-09-09T10:02:42;18.60;99.90
17726;DHT22;8983;53.156;17.960;2022-09-09T10:05:15;18.70;99.90
17726;DHT22;8983;53.156;17.960;2022-09-09T10:08:02;18.80;99.90
17726;DHT22;8983;53.156;17.960;2022-09-09T10:10:42;18.90;99.90
17726;DHT22;8983;53.156;17.960;2022-09-09T10:13:18;19.00;99.90
17726;DHT22;8983;53.156;17.960;2022-09-09T10:15:53;19.10;99.90
17726;DHT22;8983;53.156;17.960;2022-09-09T10:18:39;19.10;99.90
17726;DHT22;8983;53.156;17.960;2022-09-09T10:21:20;19.10;99.90
17726;DHT22;8983;53.156;17.960;2022-09-09T10:24:22;19.20;99.90
17726;DHT22;8983;53.156;17.960;2022-09-09T10:26:58;19.10;99.90
17726;DHT22;8983;53.156;17.960;2022-09-09T10:29:40;19.00;99.90
17726;DHT22;8983;53.156;17.960;2022-09-09T10:32:33;19.00;99.90
17726;DHT22;8983;53.156;17.960;2022-09-09T10:35:20;19.10;99.90
17726;DHT22;8983;53.156;17.960;2022-09-09T10:38:13;19.10;99.90
17726;DHT22;8983;53.156;17.960;2022-09-09T10:40:48;19.00;99.90
17726;DHT22;8983;53.156;17.960;2022-09-09T10:43:31;19.10;99.90
17726;DHT22;8983;53.156;17.960;2022-09-09T10:46:08;19.20;99.90
17726;DHT22;8983;53.156;17.960;2022-09-09T10:48:47;19.30;99.90
17726;DHT22;8983;53.156;17.960;2022-09-09T10:51:30;19.30;99.90
17726;DHT22;8983;53.156;17.960;2022-09-09T10:54:15;19.30;99.90
17726;DHT22;8983;53.156;17.960;2022-09-09T10:56:51;19.30;99.90
17726;DHT22;8983;53.156;17.960;2022-09-09T10:59:26;19.30;99.90
17726;DHT22;8983;53.156;17.960;2022-09-09T11:01:59;19.30;99.90
17726;DHT22;8983;53.156;17.960;2022-09-09T11:04:34;19.30;99.90
17726;DHT22;8983;53.156;17.960;2022-09-09T11:07:07;19.30;99.90
17726;DHT22;8983;53.156;17.960;2022-09-09T11:09:42;19.20;99.90
17726;DHT22;8983;53.156;17.960;2022-09-09T11:12:17;19.00;99.90
17726;DHT22;8983;53.156;17.960;2022-09-09T11:14:49;19.00;99.90
17726;DHT22;8983;53.156;17.960;2022-09-09T11:17:21;19.10;99.90
17726;DHT22;8983;53.156;17.960;2022-09-09T11:19:51;19.10;99.90
17726;DHT22;8983;53.156;17.960;2022-09-09T11:22:25;19.20;99.90
17726;DHT22;8983;53.156;17.960;2022-09-09T11:24:59;19.20;99.90
17726;DHT22;8983;53.156;17.960;2022-09-09T11:27:33;19.20;99.90
17726;DHT22;8983;53.156;17.960;2022-09-09T11:30:18;19.20;99.90
17726;DHT22;8983;53.156;17.960;2022-09-09T11:33:34;19.20;99.90
17726;DHT22;8983;53.156;17.960;2022-09-09T11:36:34;19.00;99.90
17726;DHT22;8983;53.156;17.960;2022-09-09T11:39:17;19.30;99.90
17726;DHT22;8983;53.156;17.960;2022-09-09T11:41:52;19.80;99.90
17726;DHT22;8983;53.156;17.960;2022-09-09T11:44:27;20.40;99.90
17726;DHT22;8983;53.156;17.960;2022-09-09T11:46:56;20.70;99.90
17726;DHT22;8983;53.156;17.960;2022-09-09T11:49:27;21.00;99.90
17726;DHT22;8983;53.156;17.960;2022-09-09T11:51:55;21.60;99.90
17726;DHT22;8983;53.156;17.960;2022-09-09T11:54:31;22.30;99.90
17726;DHT22;8983;53.156;17.960;2022-09-09T11:57:02;23.00;99.90
17726;DHT22;8983;53.156;17.960;2022-09-09T11:59:32;23.60;99.90
17726;DHT22;8983;53.156;17.960;2022-09-09T12:02:02;24.00;99.90
17726;DHT22;8983;53.156;17.960;2022-09-09T12:04:32;24.30;99.90
17726;DHT22;8983;53.156;17.960;2022-09-09T12:07:18;24.70;99.90
17726;DHT22;8983;53.156;17.960;2022-09-09T12:09:51;25.20;99.90
17726;DHT22;8983;53.156;17.960;2022-09-09T12:12:30;25.60;99.90
17726;DHT22;8983;53.156;17.960;2022-09-09T12:18:00;26.10;99.60
17726;DHT22;8983;53.156;17.960;2022-09-09T12:20:34;26.40;99.30
17726;DHT22;8983;53.156;17.960;2022-09-09T12:23:20;27.00;98.50
17726;DHT22;8983;53.156;17.960;2022-09-09T12:28:59;27.20;96.80
17726;DHT22;8983;53.156;17.960;2022-09-09T12:31:34;26.80;96.60
17726;DHT22;8983;53.156;17.960;2022-09-09T12:34:16;26.50;96.70
17726;DHT22;8983;53.156;17.960;2022-09-09T12:36:49;26.50;96.60
17726;DHT22;8983;53.156;17.960;2022-09-09T12:39:26;26.60;96.10
17726;DHT22;8983;53.156;17.960;2022-09-09T12:41:57;26.80;95.50
17726;DHT22;8983;53.156;17.960;2022-09-09T12:44:26;26.40;95.20
17726;DHT22;8983;53.156;17.960;2022-09-09T12:46:57;26.10;95.30
17726;DHT22;8983;53.156;17.960;2022-09-09T12:49:30;25.60;95.80
17726;DHT22;8983;53.156;17.960;2022-09-09T12:52:03;25.30;96.10
17726;DHT22;8983;53.156;17.960;2022-09-09T12:54:34;25.00;96.20
17726;DHT22;8983;53.156;17.960;2022-09-09T12:57:03;24.70;96.50
17726;DHT22;8983;53.156;17.960;2022-09-09T12:59:40;24.50;96.80
17726;DHT22;8983;53.156;17.960;2022-09-09T13:02:20;24.60;96.90
17726;DHT22;8983;53.156;17.960;2022-09-09T13:04:49;25.10;96.70
17726;DHT22;8983;53.156;17.960;2022-09-09T13:07:18;25.60;96.00
17726;DHT22;8983;53.156;17.960;2022-09-09T13:09:47;26.10;95.20
17726;DHT22;8983;53.156;17.960;2022-09-09T13:12:19;26.50;94.50
17726;DHT22;8983;53.156;17.960;2022-09-09T13:14:51;26.70;93.80
17726;DHT22;8983;53.156;17.960;2022-09-09T13:17:22;26.70;93.60
17726;DHT22;8983;53.156;17.960;2022-09-09T13:19:51;26.80;93.40
17726;DHT22;8983;53.156;17.960;2022-09-09T13:22:30;27.10;93.10
17726;DHT22;8983;53.156;17.960;2022-09-09T13:25:01;27.40;92.70
17726;DHT22;8983;53.156;17.960;2022-09-09T13:27:32;27.70;92.20
17726;DHT22;8983;53.156;17.960;2022-09-09T13:30:21;27.90;91.70
17726;DHT22;8983;53.156;17.960;2022-09-09T13:35:47;28.00;90.90
17726;DHT22;8983;53.156;17.960;2022-09-09T13:38:16;28.10;90.80
17726;DHT22;8983;53.156;17.960;2022-09-09T13:40:55;28.00;90.60
17726;DHT22;8983;53.156;17.960;2022-09-09T13:43:25;27.90;90.60
17726;DHT22;8983;53.156;17.960;2022-09-09T13:45:57;27.90;90.60
17726;DHT22;8983;53.156;17.960;2022-09-09T13:48:25;28.00;90.50
17726;DHT22;8983;53.156;17.960;2022-09-09T13:50:55;28.00;90.10
17726;DHT22;8983;53.156;17.960;2022-09-09T13:53:24;27.90;90.00
17726;DHT22;8983;53.156;17.960;2022-09-09T13:55:52;27.90;90.10
17726;DHT22;8983;53.156;17.960;2022-09-09T13:58:20;27.90;89.90
17726;DHT22;8983;53.156;17.960;2022-09-09T14:00:49;27.90;89.70
17726;DHT22;8983;53.156;17.960;2022-09-09T14:03:19;27.80;89.70
17726;DHT22;8983;53.156;17.960;2022-09-09T14:05:47;27.80;89.70
17726;DHT22;8983;53.156;17.960;2022-09-09T14:08:21;27.80;89.50
17726;DHT22;8983;53.156;17.960;2022-09-09T14:10:50;27.70;89.70
17726;DHT22;8983;53.156;17.960;2022-09-09T14:13:19;27.60;89.60
17726;DHT22;8983;53.156;17.960;2022-09-09T14:15:48;27.40;89.80
17726;DHT22;8983;53.156;17.960;2022-09-09T14:18:18;27.30;90.00
17726;DHT22;8983;53.156;17.960;2022-09-09T14:20:47;27.20;90.00
17726;DHT22;8983;53.156;17.960;2022-09-09T14:23:15;27.10;90.10
17726;DHT22;8983;53.156;17.960;2022-09-09T14:25:43;27.10;90.10
17726;DHT22;8983;53.156;17.960;2022-09-09T14:28:12;27.10;89.90
17726;DHT22;8983;53.156;17.960;2022-09-09T14:30:42;27.20;89.80
17726;DHT22;8983;53.156;17.960;2022-09-09T14:33:12;27.20;89.60
17726;DHT22;8983;53.156;17.960;2022-09-09T14:35:42;27.00;89.60
17726;DHT22;8983;53.156;17.960;2022-09-09T14:38:11;26.90;90.00
17726;DHT22;8983;53.156;17.960;2022-09-09T14:40:45;26.90;90.10
17726;DHT22;8983;53.156;17.960;2022-09-09T14:43:14;26.90;90.20
17726;DHT22;8983;53.156;17.960;2022-09-09T14:45:42;26.90;90.00
17726;DHT22;8983;53.156;17.960;2022-09-09T14:48:11;27.10;90.00
17726;DHT22;8983;53.156;17.960;2022-09-09T14:50:39;27.20;89.80
17726;DHT22;8983;53.156;17.960;2022-09-09T14:53:09;27.30;89.30
17726;DHT22;8983;53.156;17.960;2022-09-09T14:55:37;27.40;89.00
17726;DHT22;8983;53.156;17.960;2022-09-09T14:58:05;27.50;88.70
17726;DHT22;8983;53.156;17.960;2022-09-09T15:00:33;27.60;88.40
17726;DHT22;8983;53.156;17.960;2022-09-09T15:03:02;27.60;88.00
17726;DHT22;8983;53.156;17.960;2022-09-09T15:05:30;27.80;87.70
17726;DHT22;8983;53.156;17.960;2022-09-09T15:07:58;27.90;87.10
17726;DHT22;8983;53.156;17.960;2022-09-09T15:10:28;27.90;86.60
17726;DHT22;8983;53.156;17.960;2022-09-09T15:12:58;27.90;86.40
17726;DHT22;8983;53.156;17.960;2022-09-09T15:15:26;27.80;86.30
17726;DHT22;8983;53.156;17.960;2022-09-09T15:17:54;27.70;86.20
17726;DHT22;8983;53.156;17.960;2022-09-09T15:20:22;27.50;86.20
17726;DHT22;8983;53.156;17.960;2022-09-09T15:22:50;27.30;86.60
17726;DHT22;8983;53.156;17.960;2022-09-09T15:25:19;27.20;86.90
17726;DHT22;8983;53.156;17.960;2022-09-09T15:27:49;27.20;87.00
17726;DHT22;8983;53.156;17.960;2022-09-09T15:30:17;27.10;86.90
17726;DHT22;8983;53.156;17.960;2022-09-09T15:32:45;27.10;87.00
17726;DHT22;8983;53.156;17.960;2022-09-09T15:35:14;27.10;86.90
17726;DHT22;8983;53.156;17.960;2022-09-09T15:37:42;27.10;86.80
17726;DHT22;8983;53.156;17.960;2022-09-09T15:40:10;27.20;86.60
17726;DHT22;8983;53.156;17.960;2022-09-09T15:42:38;27.10;86.70
17726;DHT22;8983;53.156;17.960;2022-09-09T15:45:09;27.10;86.70
17726;DHT22;8983;53.156;17.960;2022-09-09T15:47:37;27.10;86.50
17726;DHT22;8983;53.156;17.960;2022-09-09T15:50:06;27.00;86.40
17726;DHT22;8983;53.156;17.960;2022-09-09T15:52:34;27.00;86.50
17726;DHT22;8983;53.156;17.960;2022-09-09T15:55:03;27.00;86.40
17726;DHT22;8983;53.156;17.960;2022-09-09T15:57:31;26.80;86.20
17726;DHT22;8983;53.156;17.960;2022-09-09T15:59:59;26.40;86.60
17726;DHT22;8983;53.156;17.960;2022-09-09T16:02:29;25.90;87.50
17726;DHT22;8983;53.156;17.960;2022-09-09T16:04:57;25.60;88.70
17726;DHT22;8983;53.156;17.960;2022-09-09T16:07:27;25.30;89.50
17726;DHT22;8983;53.156;17.960;2022-09-09T16:09:55;24.90;90.10
17726;DHT22;8983;53.156;17.960;2022-09-09T16:12:23;24.70;90.50